aviador You're here:

LFCK Decoded Metar

CASTRES in FRANCE
Report Time2017-10-22 17:00:00
UTC Time2017-10-22 17:13:40
Flight Rules vfr VFR
Wind300° at 14 kt
W.Decomp.*RWY 32: 13.2 kt HW 4.8 kt LCW
W.Rank300° ranks 2
Current wind is above 300° avg. (10.0)
Visibility9999 m
Phenomena:N/A
Clouds:N/A
Expected CloudBase > 1,200 ft AGL from Temp-Dew spread
CeilingNone
Temp12°C
Dew Point09°C (82% RH)
AAT6.7°C
QNH1026 hPa
Raw Report
METAR LFCK 221700Z AUTO 30014KT CAVOK 12/09 Q1026 TEMPO 30016G26KT=

Extra information for LFCK:More info

Metar Taf Metar & Taf Last 4 Metars F.Rules Stats Wind Profile Meteogram Temp Stats Airport Information Weather charts Add Link Nearby VenuesMetar ALERT Operation Metar Decoded Social comments